Time;durP1;ratioP1;P1;durP2;ratioP2;P2;SDS_P1;SDS_P2;PMS_P1;PMS_P2;Temp;Humidity;BMP_temperature;BMP_pressure;BME280_temperature;BME280_humidity;BME280_pressure;Samples;Min_cycle;Max_cycle;Signal;HPM_P1;HPM_P2
2021/01/30 00:01:46;;;;;;;13.43;8.73;;;-1.30;90.30;;;;;;5094795;28;20443;-81
2021/01/30 00:04:14;;;;;;;12.98;9.52;;;-1.30;90.40;;;;;;5094310;28;20111;-79
2021/01/30 00:06:50;;;;;;;13.70;9.57;;;-1.20;90.30;;;;;;5096122;28;20103;-80
2021/01/30 00:09:18;;;;;;;13.88;9.40;;;-1.20;90.20;;;;;;5094238;28;20031;-80
2021/01/30 00:11:51;;;;;;;13.43;9.38;;;-1.20;90.20;;;;;;5093902;28;20080;-79
2021/01/30 00:14:22;;;;;;;11.57;8.40;;;-1.20;90.20;;;;;;5092804;28;20016;-81
2021/01/30 00:16:48;;;;;;;13.10;9.15;;;-1.10;90.20;;;;;;5091388;28;20093;-80
2021/01/30 00:19:14;;;;;;;14.82;10.02;;;-1.10;90.20;;;;;;5094166;28;20016;-81
2021/01/30 00:21:40;;;;;;;14.02;8.75;;;-1.10;90.10;;;;;;5093271;28;20048;-81
2021/01/30 00:24:07;;;;;;;14.10;8.77;;;-1.20;89.60;;;;;;5093973;28;20114;-79
2021/01/30 00:26:33;;;;;;;17.08;12.43;;;-1.30;90.00;;;;;;5093701;28;20024;-82
2021/01/30 00:28:59;;;;;;;15.35;10.50;;;-1.30;90.00;;;;;;5093636;28;20024;-80
2021/01/30 00:31:25;;;;;;;17.48;11.52;;;-1.30;90.20;;;;;;5093592;28;20043;-79
2021/01/30 00:33:51;;;;;;;13.63;9.90;;;-1.30;90.30;;;;;;5093187;28;20473;-79
2021/01/30 00:36:17;;;;;;;18.70;12.00;;;-1.20;90.30;;;;;;5096477;28;20318;-79
2021/01/30 00:38:43;;;;;;;16.83;10.30;;;-1.30;90.10;;;;;;5093517;28;20024;-80
2021/01/30 00:41:09;;;;;;;19.67;11.80;;;-1.20;90.30;;;;;;5099803;28;20016;-79
2021/01/30 00:43:34;;;;;;;17.48;12.15;;;-1.20;90.20;;;;;;5092988;28;20103;-80
2021/01/30 00:46:00;;;;;;;14.50;10.38;;;-1.30;90.00;;;;;;5093615;28;20020;-79
2021/01/30 00:48:26;;;;;;;18.35;11.48;;;-1.30;89.80;;;;;;5093893;28;20480;-80
2021/01/30 00:50:52;;;;;;;19.75;11.43;;;-1.30;90.00;;;;;;5093016;28;20024;-80
2021/01/30 00:53:18;;;;;;;15.63;10.60;;;-1.20;90.00;;;;;;5097198;28;20017;-80
2021/01/30 00:55:44;;;;;;;17.02;10.82;;;-1.20;89.90;;;;;;5095387;28;20086;-79
2021/01/30 00:58:09;;;;;;;16.27;11.05;;;-1.10;90.00;;;;;;5091304;28;20016;-79
2021/01/30 01:00:35;;;;;;;15.55;11.43;;;-1.10;89.40;;;;;;5093687;28;20024;-80
2021/01/30 01:03:01;;;;;;;17.42;10.65;;;-1.20;88.00;;;;;;5088588;28;20099;-80
2021/01/30 01:05:28;;;;;;;11.60;7.13;;;-1.20;88.30;;;;;;5079977;28;20101;-80
2021/01/30 01:07:54;;;;;;;17.23;10.98;;;-1.30;86.70;;;;;;5086887;28;20016;-80
2021/01/30 01:10:22;;;;;;;15.82;11.05;;;-1.30;87.10;;;;;;5078101;28;20528;-78
2021/01/30 01:12:48;;;;;;;17.00;11.05;;;-1.30;87.50;;;;;;5088848;28;20020;-80
2021/01/30 01:15:17;;;;;;;14.20;9.50;;;-1.40;87.10;;;;;;5093262;28;20093;-80
2021/01/30 01:17:43;;;;;;;15.65;10.02;;;-1.30;87.40;;;;;;5076811;28;20027;-80
2021/01/30 01:20:15;;;;;;;16.63;11.82;;;-1.40;86.90;;;;;;5073535;28;20041;-79
2021/01/30 01:22:41;;;;;;;18.27;11.95;;;-1.40;86.60;;;;;;5089364;28;20028;-78
2021/01/30 01:25:08;;;;;;;14.85;11.23;;;-1.40;87.00;;;;;;5092715;28;20039;-78
2021/01/30 01:27:34;;;;;;;14.75;9.07;;;-1.40;86.90;;;;;;5094065;28;20020;-80
2021/01/30 01:30:00;;;;;;;16.65;10.80;;;-1.30;87.30;;;;;;5095043;28;20103;-79
2021/01/30 01:32:27;;;;;;;19.30;12.55;;;-1.40;86.90;;;;;;5093747;28;20035;-80
2021/01/30 01:34:52;;;;;;;21.85;12.65;;;-1.30;87.10;;;;;;5077152;28;20035;-79
2021/01/30 01:37:18;;;;;;;15.68;11.20;;;-1.30;87.20;;;;;;5090922;28;20028;-79
2021/01/30 01:39:44;;;;;;;16.20;11.63;;;-1.40;86.90;;;;;;5092719;28;20018;-79
2021/01/30 01:42:16;;;;;;;15.40;9.90;;;-1.40;86.90;;;;;;5093435;28;20099;-80
2021/01/30 01:44:43;;;;;;;16.83;11.18;;;-1.60;87.10;;;;;;5092707;28;20028;-79
2021/01/30 01:47:16;;;;;;;18.48;12.30;;;-1.70;87.00;;;;;;5090798;28;20020;-79
2021/01/30 01:49:43;;;;;;;17.63;11.68;;;-1.70;87.50;;;;;;5092221;28;20544;-79
2021/01/30 01:52:35;;;;;;;16.55;11.15;;;-1.60;87.90;;;;;;5092360;28;20024;-81
2021/01/30 01:55:12;;;;;;;17.88;11.20;;;-1.60;88.00;;;;;;5085939;28;20024;-80
2021/01/30 01:57:46;;;;;;;17.08;11.30;;;-1.60;87.90;;;;;;5093387;28;20022;-80
2021/01/30 02:00:13;;;;;;;17.20;11.18;;;-1.50;87.60;;;;;;5095532;28;20020;-80
2021/01/30 02:02:40;;;;;;;17.42;12.27;;;-1.50;87.60;;;;;;5093476;28;20059;-79
2021/01/30 02:05:16;;;;;;;20.20;12.45;;;-1.50;87.10;;;;;;5098610;28;20584;-78
2021/01/30 02:07:44;;;;;;;17.27;10.95;;;-1.50;87.10;;;;;;5072658;28;20028;-80
2021/01/30 02:10:14;;;;;;;17.85;11.20;;;-1.50;87.50;;;;;;5073081;28;20020;-79
2021/01/30 02:12:42;;;;;;;15.48;11.27;;;-1.40;87.70;;;;;;5079095;28;20023;-80
2021/01/30 02:15:09;;;;;;;15.65;11.43;;;-1.40;87.70;;;;;;5090860;28;20481;-80
2021/01/30 02:17:39;;;;;;;22.02;13.32;;;-1.40;87.80;;;;;;5091731;28;20028;-80
2021/01/30 02:20:42;;;;;;;17.73;11.63;;;-1.50;88.90;;;;;;5091802;28;20048;-79
2021/01/30 02:23:45;;;;;;;17.27;11.77;;;-1.50;90.00;;;;;;5084189;28;20026;-80
2021/01/30 02:26:29;;;;;;;21.77;14.32;;;-1.70;90.60;;;;;;5090165;28;20032;-80
2021/01/30 02:28:58;;;;;;;16.60;11.82;;;-1.80;90.90;;;;;;5093486;28;20481;-79
2021/01/30 02:32:08;;;;;;;21.70;13.45;;;-1.90;91.30;;;;;;5092259;28;20485;-77
2021/01/30 02:34:57;;;;;;;21.30;13.75;;;-1.80;91.70;;;;;;5076617;28;20024;-80
2021/01/30 02:37:30;;;;;;;19.73;11.88;;;-1.80;91.70;;;;;;5093977;28;20119;-79
2021/01/30 02:40:04;;;;;;;23.50;13.45;;;-1.90;91.50;;;;;;5091841;28;20470;-78
2021/01/30 02:42:34;;;;;;;22.35;12.52;;;-2.00;91.50;;;;;;5091833;28;20008;-78
2021/01/30 02:45:09;;;;;;;20.40;13.98;;;-2.10;91.60;;;;;;5090275;28;20453;-78
2021/01/30 02:47:46;;;;;;;17.75;12.80;;;-2.10;91.70;;;;;;5090588;28;20023;-78
2021/01/30 02:50:20;;;;;;;19.70;13.25;;;-2.10;91.70;;;;;;5098225;28;20118;-79
2021/01/30 02:52:50;;;;;;;19.65;12.23;;;-2.10;91.50;;;;;;5091792;28;20389;-80
2021/01/30 02:55:18;;;;;;;16.38;11.50;;;-2.00;91.60;;;;;;5101010;28;20024;-79
2021/01/30 02:57:45;;;;;;;20.45;14.20;;;-2.00;91.50;;;;;;5091584;28;20381;-79
2021/01/30 03:00:16;;;;;;;23.70;14.45;;;-1.90;91.40;;;;;;5091571;28;20021;-80
2021/01/30 03:02:42;;;;;;;21.08;13.23;;;-1.80;91.30;;;;;;5091359;28;20039;-79
2021/01/30 03:05:11;;;;;;;17.30;12.25;;;-1.80;90.90;;;;;;5090307;28;20028;-78
2021/01/30 03:08:12;;;;;;;22.98;15.13;;;-1.70;91.00;;;;;;5093692;28;20035;-80
2021/01/30 03:10:40;;;;;;;21.00;12.52;;;-1.60;90.90;;;;;;5063472;28;20366;-80
2021/01/30 03:13:15;;;;;;;19.40;11.82;;;-1.60;90.70;;;;;;5095245;28;20047;-81
2021/01/30 03:16:15;;;;;;;19.25;13.02;;;-1.60;90.50;;;;;;5094854;28;20022;-80
2021/01/30 03:18:54;;;;;;;19.35;11.82;;;-1.60;90.40;;;;;;5095079;28;20020;-79
2021/01/30 03:21:22;;;;;;;19.25;11.80;;;-1.60;90.00;;;;;;5087726;28;20588;-80
2021/01/30 03:23:49;;;;;;;20.45;13.32;;;-1.60;90.10;;;;;;5094561;28;20713;-79
2021/01/30 03:26:20;;;;;;;19.55;14.23;;;-1.60;90.10;;;;;;5094930;28;20381;-81
2021/01/30 03:28:47;;;;;;;22.17;12.23;;;-1.50;90.10;;;;;;5094728;28;20028;-79
2021/01/30 03:31:13;;;;;;;22.02;13.38;;;-1.50;90.10;;;;;;5093592;28;20112;-80
2021/01/30 03:33:40;;;;;;;18.98;11.77;;;-1.50;90.00;;;;;;5099285;28;20031;-79
2021/01/30 03:36:06;;;;;;;20.65;13.10;;;-1.60;89.90;;;;;;5093375;28;20042;-79
2021/01/30 03:38:32;;;;;;;20.40;10.63;;;-1.70;89.40;;;;;;5094664;28;20377;-79
2021/01/30 03:40:58;;;;;;;22.05;15.60;;;-1.70;90.00;;;;;;5093348;28;20031;-80
2021/01/30 03:43:24;;;;;;;21.30;13.27;;;-1.80;90.20;;;;;;5094709;28;20526;-80
2021/01/30 03:45:50;;;;;;;12.00;8.90;;;-1.80;89.70;;;;;;5094388;28;20081;-80
2021/01/30 03:48:16;;;;;;;17.73;11.00;;;-1.80;89.70;;;;;;5095394;28;20020;-80
2021/01/30 03:50:42;;;;;;;19.77;12.02;;;-1.90;89.50;;;;;;5094764;28;20020;-80
2021/01/30 03:53:09;;;;;;;17.75;11.07;;;-1.90;89.70;;;;;;5084302;28;20070;-79
2021/01/30 03:55:36;;;;;;;14.20;10.48;;;-1.80;89.60;;;;;;5094254;28;20016;-80
2021/01/30 03:58:03;;;;;;;19.92;13.73;;;-1.80;89.60;;;;;;5094352;28;20487;-79
2021/01/30 04:00:29;;;;;;;20.23;12.57;;;-1.90;88.80;;;;;;5094126;28;20046;-80
2021/01/30 04:02:54;;;;;;;22.10;14.18;;;-1.90;89.20;;;;;;5094455;28;20422;-78
2021/01/30 04:05:25;;;;;;;22.20;11.52;;;-1.80;89.40;;;;;;5095088;28;20043;-81
2021/01/30 04:07:54;;;;;;;19.63;9.50;;;-1.80;89.30;;;;;;5094693;28;20193;-80
2021/01/30 04:10:33;;;;;;;12.77;8.80;;;-1.80;89.30;;;;;;5094967;28;20397;-79
2021/01/30 04:13:02;;;;;;;20.27;13.45;;;-1.80;89.30;;;;;;5101764;27;20473;-79
2021/01/30 04:15:32;;;;;;;16.95;9.27;;;-1.90;89.00;;;;;;5099208;28;20024;-79
2021/01/30 04:17:58;;;;;;;17.65;9.85;;;-1.90;89.20;;;;;;5093756;28;20023;-79
2021/01/30 04:20:24;;;;;;;14.23;9.85;;;-2.00;89.90;;;;;;5094021;28;20036;-79
2021/01/30 04:22:49;;;;;;;21.90;13.73;;;-2.10;90.10;;;;;;5095051;28;20031;-78
2021/01/30 04:25:18;;;;;;;20.30;12.98;;;-2.20;90.50;;;;;;5094568;28;20036;-79
2021/01/30 04:27:44;;;;;;;14.90;9.35;;;-2.10;90.80;;;;;;5095138;28;20025;-78
2021/01/30 04:30:13;;;;;;;21.60;13.85;;;-2.10;90.90;;;;;;5093861;28;20038;-79
2021/01/30 04:32:39;;;;;;;21.27;13.50;;;-2.10;91.20;;;;;;5090770;28;20069;-81
2021/01/30 04:35:06;;;;;;;15.40;9.68;;;-2.10;91.30;;;;;;5105556;28;20020;-79
2021/01/30 04:37:32;;;;;;;;;;;-2.10;91.10;;;;;;5121822;27;20473;-79
2021/01/30 04:39:57;;;;;;;25.65;16.30;;;-2.20;91.00;;;;;;5093032;28;19904;-79
2021/01/30 04:42:49;;;;;;;19.58;8.63;;;-2.20;91.30;;;;;;5096966;28;20358;-78
2021/01/30 04:45:33;;;;;;;16.35;9.38;;;-2.20;91.50;;;;;;5104070;28;20028;-82
2021/01/30 04:48:27;;;;;;;23.25;15.25;;;-2.20;91.60;;;;;;5094208;28;20540;-80
2021/01/30 04:51:16;;;;;;;21.50;12.20;;;-2.20;91.50;;;;;;5077590;28;20043;-80
2021/01/30 04:53:53;;;;;;;24.30;12.85;;;-2.20;91.50;;;;;;5089393;28;20051;-82
2021/01/30 04:56:34;;;;;;;22.73;14.05;;;-2.20;91.00;;;;;;5105926;28;20027;-80
2021/01/30 04:59:23;;;;;;;21.42;14.50;;;-2.30;91.00;;;;;;5098514;28;20023;-82
2021/01/30 05:02:12;;;;;;;20.80;12.70;;;-2.20;91.30;;;;;;5065925;28;20069;-81
2021/01/30 05:04:50;;;;;;;21.23;13.93;;;-2.20;91.30;;;;;;5093536;28;20113;-80
2021/01/30 05:07:36;;;;;;;21.77;13.45;;;-2.20;91.60;;;;;;5091439;28;20370;-80
2021/01/30 05:10:35;;;;;;;18.00;10.52;;;-2.20;91.80;;;;;;5093461;28;20016;-81
2021/01/30 05:13:16;;;;;;;19.77;10.80;;;-2.30;92.00;;;;;;5088580;28;20015;-78
2021/01/30 05:16:00;;;;;;;21.95;13.00;;;-2.30;92.20;;;;;;5096847;28;20027;-79
2021/01/30 05:18:30;;;;;;;18.52;13.75;;;-2.30;92.50;;;;;;5092930;28;20028;-80
2021/01/30 05:21:03;;;;;;;19.65;12.30;;;-2.30;92.60;;;;;;5091228;28;20046;-81
2021/01/30 05:23:31;;;;;;;22.58;12.75;;;-2.30;92.70;;;;;;5092546;28;20047;-80
2021/01/30 05:26:21;;;;;;;17.52;10.55;;;-2.40;93.00;;;;;;5092719;28;20089;-81
2021/01/30 05:29:13;;;;;;;24.40;12.70;;;-2.30;92.90;;;;;;5084957;28;20413;-81
2021/01/30 05:32:19;;;;;;;15.40;9.73;;;-2.40;92.90;;;;;;5103858;28;20399;-79
2021/01/30 05:34:56;;;;;;;38.38;14.13;;;-2.40;93.10;;;;;;5106453;28;20027;-80
2021/01/30 05:37:34;;;;;;;26.10;13.13;;;-2.40;93.30;;;;;;5100643;28;20020;-79
2021/01/30 05:40:18;;;;;;;18.88;9.57;;;-2.40;93.30;;;;;;5104187;28;20016;-80
2021/01/30 05:43:07;;;;;;;17.77;12.32;;;-2.40;93.20;;;;;;5091207;28;20473;-80
2021/01/30 05:45:44;;;;;;;21.75;13.50;;;-2.40;93.50;;;;;;5082099;28;20117;-83
2021/01/30 05:48:23;;;;;;;23.65;16.52;;;-2.40;93.60;;;;;;5090971;28;20027;-80
2021/01/30 05:50:59;;;;;;;21.08;16.08;;;-2.30;93.60;;;;;;5092641;28;20024;-80
2021/01/30 05:53:27;;;;;;;22.25;14.70;;;-2.20;93.60;;;;;;5096862;28;20026;-83
2021/01/30 05:55:57;;;;;;;18.77;11.77;;;-2.30;93.20;;;;;;5101231;28;20503;-80
2021/01/30 05:58:24;;;;;;;19.70;12.20;;;-2.20;93.30;;;;;;5093413;28;20028;-80
2021/01/30 06:01:10;;;;;;;19.58;12.15;;;-2.20;92.90;;;;;;5092416;28;20024;-80
2021/01/30 06:03:53;;;;;;;17.23;10.18;;;-2.20;92.50;;;;;;5091729;28;20035;-79
2021/01/30 06:06:20;;;;;;;22.23;11.02;;;-2.20;92.30;;;;;;5091819;28;20132;-80
2021/01/30 06:09:05;;;;;;;19.00;10.82;;;-2.40;91.90;;;;;;5091979;28;20489;-82
2021/01/30 06:11:48;;;;;;;16.38;10.55;;;-2.30;92.40;;;;;;5090887;28;20042;-82
2021/01/30 06:14:39;;;;;;;17.95;11.35;;;-2.30;92.50;;;;;;5090674;28;20117;-81
2021/01/30 06:17:30;;;;;;;17.38;10.68;;;-2.20;92.60;;;;;;5091028;28;20377;-82
2021/01/30 06:20:18;;;;;;;16.45;10.60;;;-2.20;92.60;;;;;;5085513;28;20024;-81
2021/01/30 06:23:20;;;;;;;19.73;14.52;;;-2.20;92.50;;;;;;5089675;28;20024;-81
2021/01/30 06:25:46;;;;;;;16.67;11.65;;;-2.20;92.70;;;;;;5008937;28;20550;-80
2021/01/30 06:28:24;;;;;;;15.35;9.70;;;-2.10;92.70;;;;;;5009492;28;20049;-82
2021/01/30 06:30:50;;;;;;;17.90;11.70;;;-2.00;92.70;;;;;;5009564;28;20026;-81
2021/01/30 06:33:21;;;;;;;17.30;11.40;;;-2.10;92.40;;;;;;5013954;28;20119;-80
2021/01/30 06:35:47;;;;;;;17.58;10.57;;;-2.10;92.60;;;;;;5009383;28;20526;-79
2021/01/30 06:38:23;;;;;;;15.18;9.65;;;-2.10;92.50;;;;;;5009548;28;20084;-79
2021/01/30 06:41:04;;;;;;;14.82;10.55;;;-2.00;92.50;;;;;;5011223;28;20411;-83
2021/01/30 06:43:34;;;;;;;14.30;8.57;;;-2.10;92.70;;;;;;5004439;28;20022;-81
2021/01/30 06:46:21;;;;;;;16.50;9.88;;;-2.10;92.40;;;;;;4984156;28;20077;-79
2021/01/30 06:48:50;;;;;;;15.20;9.32;;;-2.20;92.50;;;;;;5016856;28;20030;-79
2021/01/30 06:51:29;;;;;;;19.27;11.95;;;-2.20;92.70;;;;;;5014345;28;20034;-80
2021/01/30 06:54:15;;;;;;;14.25;9.85;;;-2.10;92.90;;;;;;4997183;28;20161;-78
2021/01/30 06:56:42;;;;;;;15.23;9.13;;;-2.10;92.80;;;;;;4994195;28;20156;-80
2021/01/30 06:59:17;;;;;;;13.65;9.20;;;-2.00;92.70;;;;;;5041168;28;20033;-80
2021/01/30 07:01:46;;;;;;;16.23;9.77;;;-2.00;92.70;;;;;;5095267;28;20408;-81
2021/01/30 07:04:41;;;;;;;15.98;10.75;;;-2.00;92.60;;;;;;5093818;28;20515;-80
2021/01/30 07:07:39;;;;;;;15.18;10.18;;;-2.00;92.90;;;;;;5095129;28;20042;-81
2021/01/30 07:10:21;;;;;;;13.80;8.93;;;-1.80;92.90;;;;;;5063000;28;20051;-80
2021/01/30 07:13:04;;;;;;;13.07;8.30;;;-1.90;91.70;;;;;;5081230;28;20016;-79
2021/01/30 07:15:34;;;;;;;12.20;8.70;;;-1.90;92.00;;;;;;5099158;28;20043;-79
2021/01/30 07:18:31;;;;;;;12.70;7.88;;;-1.80;92.20;;;;;;5096045;28;20435;-79
2021/01/30 07:20:57;;;;;;;;;;;-1.80;91.90;;;;;;5107105;28;20488;-80
2021/01/30 07:24:03;;;;;;;12.13;7.22;;;-1.70;91.80;;;;;;5095036;28;19995;-81
2021/01/30 07:26:38;;;;;;;10.30;8.20;;;-1.80;91.80;;;;;;5100553;28;20032;-80
2021/01/30 07:29:10;;;;;;;9.18;6.40;;;-1.80;91.40;;;;;;5094903;28;20020;-82
2021/01/30 07:31:50;;;;;;;10.73;7.18;;;-1.80;91.70;;;;;;5081745;28;20405;-80
2021/01/30 07:34:28;;;;;;;11.13;7.25;;;-1.90;91.30;;;;;;5094320;28;20020;-81
2021/01/30 07:36:59;;;;;;;16.40;8.70;;;-1.90;91.00;;;;;;5094724;28;20187;-80
2021/01/30 07:39:50;;;;;;;14.40;7.93;;;-1.80;91.40;;;;;;5094458;28;20016;-81
2021/01/30 07:42:33;;;;;;;11.00;7.97;;;-1.80;91.20;;;;;;5094463;28;20024;-81
2021/01/30 07:45:08;;;;;;;11.52;7.78;;;-1.80;90.90;;;;;;5093667;28;20062;-81
2021/01/30 07:48:14;;;;;;;11.63;7.78;;;-1.80;91.30;;;;;;5094748;28;20016;-79
2021/01/30 07:50:47;;;;;;;11.38;7.72;;;-1.70;90.90;;;;;;5079936;28;20039;-80
2021/01/30 07:53:17;;;;;;;13.05;8.07;;;-1.50;90.80;;;;;;5096610;28;20024;-80
2021/01/30 07:56:07;;;;;;;9.32;6.75;;;-1.40;90.70;;;;;;5097188;28;20073;-81
2021/01/30 07:58:56;;;;;;;14.35;8.48;;;-1.50;90.80;;;;;;5057036;28;20060;-80
2021/01/30 08:01:53;;;;;;;11.27;7.78;;;-1.40;90.90;;;;;;5094557;28;20490;-82
2021/01/30 08:04:33;;;;;;;12.43;8.05;;;-1.30;90.50;;;;;;5099217;28;20059;-81
2021/01/30 08:07:16;;;;;;;13.85;7.47;;;-1.20;90.40;;;;;;5090287;28;20032;-80
2021/01/30 08:10:03;;;;;;;13.55;7.47;;;-1.30;90.20;;;;;;5101225;28;20030;-81
2021/01/30 08:13:10;;;;;;;9.90;6.72;;;-1.30;90.30;;;;;;5092777;28;20046;-79
2021/01/30 08:15:48;;;;;;;10.65;7.13;;;-1.40;90.50;;;;;;5089700;28;20028;-84
2021/01/30 08:18:29;;;;;;;13.52;8.82;;;-1.40;90.80;;;;;;5092913;28;20028;-84
2021/01/30 08:21:11;;;;;;;12.73;8.35;;;-1.40;90.70;;;;;;5082999;28;20044;-83
2021/01/30 08:24:05;;;;;;;9.82;6.18;;;-1.40;90.80;;;;;;5087690;28;20081;-82
2021/01/30 08:26:34;;;;;;;11.13;7.85;;;-1.30;91.00;;;;;;5105054;28;20016;-85
2021/01/30 08:29:03;;;;;;;12.05;7.97;;;-1.30;91.00;;;;;;5092761;28;20024;-82
2021/01/30 08:31:38;;;;;;;11.90;8.20;;;-1.20;90.80;;;;;;5106775;28;20049;-81
2021/01/30 08:34:18;;;;;;;11.23;7.05;;;-1.20;90.70;;;;;;5093607;28;20028;-82
2021/01/30 08:36:48;;;;;;;10.63;7.18;;;-1.30;90.80;;;;;;5093589;28;20060;-83
2021/01/30 08:39:25;;;;;;;10.18;7.88;;;-1.50;90.30;;;;;;5092425;28;20024;-79
2021/01/30 08:41:58;;;;;;;11.77;7.78;;;-1.50;90.90;;;;;;5080780;28;20031;-79
2021/01/30 08:44:47;;;;;;;11.43;7.13;;;-1.40;90.90;;;;;;5093635;28;20084;-81
2021/01/30 08:47:30;;;;;;;8.80;5.93;;;-1.40;90.70;;;;;;5093718;28;20027;-78
2021/01/30 08:50:00;;;;;;;13.57;7.53;;;-1.50;90.90;;;;;;5093061;28;20028;-79
2021/01/30 08:52:39;;;;;;;13.02;7.28;;;-1.40;91.30;;;;;;5092999;28;20107;-79
2021/01/30 08:55:29;;;;;;;11.50;6.55;;;-1.50;90.80;;;;;;5091916;28;20020;-80
2021/01/30 08:57:55;;;;;;;11.23;7.85;;;-1.50;91.40;;;;;;5094687;28;20139;-79
2021/01/30 09:00:27;;;;;;;9.55;6.72;;;-1.50;91.20;;;;;;5093638;28;20500;-78
2021/01/30 09:03:00;;;;;;;10.40;7.07;;;-1.40;91.80;;;;;;5092568;28;20415;-78
2021/01/30 09:05:26;;;;;;;10.73;7.70;;;-1.40;91.60;;;;;;5092673;28;20063;-79
2021/01/30 09:07:56;;;;;;;14.30;7.75;;;-1.40;91.70;;;;;;5093046;28;20116;-75
2021/01/30 09:10:22;;;;;;;10.50;6.43;;;-1.30;91.50;;;;;;5091665;28;20422;-79
2021/01/30 09:12:56;;;;;;;10.40;5.88;;;-1.40;91.40;;;;;;5092896;28;20095;-78
2021/01/30 09:15:55;;;;;;;12.50;6.82;;;-1.40;91.60;;;;;;5091563;28;20038;-80
2021/01/30 09:18:36;;;;;;;10.88;6.05;;;-1.40;91.60;;;;;;5086747;28;20381;-79
2021/01/30 09:21:05;;;;;;;14.20;7.95;;;-1.40;91.60;;;;;;5094825;28;20048;-82
2021/01/30 09:24:05;;;;;;;14.75;8.10;;;-1.40;92.00;;;;;;5093214;28;20016;-82
2021/01/30 09:26:53;;;;;;;11.88;7.15;;;-1.30;91.50;;;;;;5080577;28;20024;-82
2021/01/30 09:29:44;;;;;;;11.77;8.02;;;-1.20;91.60;;;;;;5093130;28;20095;-82
2021/01/30 09:32:20;;;;;;;12.75;6.93;;;-1.10;91.60;;;;;;5093504;28;20535;-81
2021/01/30 09:34:53;;;;;;;11.30;7.82;;;-1.00;91.60;;;;;;5103007;28;20036;-82
2021/01/30 09:37:40;;;;;;;9.00;5.65;;;-0.90;91.50;;;;;;5090071;28;20016;-83
2021/01/30 09:40:09;;;;;;;11.73;7.50;;;-0.80;91.30;;;;;;5081760;28;20031;-85
2021/01/30 09:42:35;;;;;;;9.50;6.63;;;-0.90;91.00;;;;;;5093369;28;20020;-86
2021/01/30 09:45:11;;;;;;;12.07;7.40;;;-0.90;90.80;;;;;;5093316;28;20543;-85
2021/01/30 09:47:42;;;;;;;9.63;7.10;;;-0.90;90.80;;;;;;5075052;28;20046;-84
2021/01/30 09:50:13;;;;;;;13.30;8.23;;;-0.90;91.00;;;;;;5087972;28;20059;-83
2021/01/30 09:52:50;;;;;;;13.00;8.48;;;-0.90;91.10;;;;;;5086834;28;20012;-84
2021/01/30 09:55:16;;;;;;;14.80;6.85;;;-0.90;90.90;;;;;;5092953;28;20023;-83
2021/01/30 09:57:44;;;;;;;13.15;7.90;;;-0.80;91.20;;;;;;5093973;28;20022;-87
2021/01/30 10:00:36;;;;;;;10.60;6.75;;;-0.70;91.30;;;;;;5092962;28;20165;-87
2021/01/30 10:03:05;;;;;;;15.90;7.90;;;-0.60;91.30;;;;;;5086289;28;20112;-86
2021/01/30 10:05:30;;;;;;;13.63;7.40;;;-0.60;91.00;;;;;;5091917;28;20039;-88
2021/01/30 10:07:56;;;;;;;11.63;7.95;;;-0.70;91.00;;;;;;5096851;28;20021;-88
2021/01/30 10:10:22;;;;;;;9.15;6.35;;;-0.60;91.20;;;;;;5094298;28;20112;-85
2021/01/30 10:12:52;;;;;;;10.43;7.90;;;-0.60;90.80;;;;;;5092323;28;20020;-88
2021/01/30 10:15:32;;;;;;;11.07;6.35;;;-0.50;91.10;;;;;;5094512;28;20020;-87
2021/01/30 10:18:07;;;;;;;9.73;6.45;;;-0.40;90.90;;;;;;5083842;28;20016;-84
2021/01/30 10:20:48;;;;;;;9.10;6.18;;;-0.40;91.20;;;;;;5111846;28;20067;-85
2021/01/30 10:23:34;;;;;;;11.70;7.93;;;-0.50;91.10;;;;;;5086202;28;20079;-86
2021/01/30 10:26:14;;;;;;;11.00;7.22;;;-0.60;90.90;;;;;;5110053;28;20185;-86
2021/01/30 10:28:47;;;;;;;11.13;7.10;;;-0.40;91.00;;;;;;5098082;28;20032;-87
2021/01/30 10:31:16;;;;;;;10.48;6.75;;;-0.40;91.10;;;;;;5087535;28;20016;-87
2021/01/30 10:33:49;;;;;;;9.48;6.25;;;-0.40;91.30;;;;;;5116453;28;20030;-85
2021/01/30 10:36:18;;;;;;;9.77;6.85;;;-0.40;90.90;;;;;;5100203;28;20537;-87
2021/01/30 10:38:45;;;;;;;9.15;6.85;;;-0.40;91.00;;;;;;5098060;28;20024;-85
2021/01/30 10:41:17;;;;;;;11.27;7.78;;;-0.40;90.60;;;;;;5094817;28;20024;-84
2021/01/30 10:43:45;;;;;;;12.80;6.35;;;-0.40;90.60;;;;;;5088393;28;20056;-81
2021/01/30 10:46:26;;;;;;;8.77;6.25;;;-0.30;90.90;;;;;;5112063;27;20032;-89
2021/01/30 10:48:53;;;;;;;8.98;6.32;;;-0.20;90.70;;;;;;5090726;28;20021;-90
2021/01/30 10:51:23;;;;;;;8.60;5.97;;;-0.10;90.70;;;;;;5096263;28;20408;-86
2021/01/30 10:53:52;;;;;;;10.07;5.53;;;0.00;90.30;;;;;;5103500;28;20020;-90
2021/01/30 10:56:29;;;;;;;9.20;6.00;;;0.10;89.60;;;;;;5116080;28;20036;-89
2021/01/30 10:58:57;;;;;;;8.23;5.55;;;0.20;89.30;;;;;;5100090;28;20020;-88
2021/01/30 11:01:31;;;;;;;10.45;5.72;;;0.10;88.70;;;;;;5108055;28;20020;-87
2021/01/30 11:04:03;;;;;;;6.90;4.75;;;0.00;88.80;;;;;;5103420;28;20035;-85
2021/01/30 11:06:45;;;;;;;8.38;6.13;;;0.00;88.90;;;;;;5099082;28;20366;-89
2021/01/30 11:09:28;;;;;;;10.90;5.30;;;0.00;88.50;;;;;;5102933;28;20039;-86
2021/01/30 11:12:16;;;;;;;9.50;5.18;;;-0.10;88.10;;;;;;5103587;28;20088;-90
2021/01/30 11:14:42;;;;;;;10.65;5.47;;;0.10;88.00;;;;;;5100425;28;20427;-87
2021/01/30 11:17:31;;;;;;;8.25;5.72;;;0.10;88.00;;;;;;5097022;28;20028;-88
2021/01/30 11:19:58;;;;;;;9.13;4.93;;;0.20;86.90;;;;;;5084883;28;20030;-89
2021/01/30 11:22:26;;;;;;;8.23;6.20;;;0.10;87.00;;;;;;5098672;28;20059;-87
2021/01/30 11:25:03;;;;;;;9.77;5.40;;;0.00;87.30;;;;;;5097997;28;20024;-86
2021/01/30 11:27:45;;;;;;;9.73;4.35;;;0.00;87.80;;;;;;5097916;28;20043;-87
2021/01/30 11:30:31;;;;;;;7.13;4.05;;;0.00;87.50;;;;;;5100746;28;20078;-88
2021/01/30 11:33:11;;;;;;;9.70;5.80;;;-0.10;88.00;;;;;;5097505;28;20397;-86
2021/01/30 11:35:44;;;;;;;6.78;4.38;;;-0.30;87.60;;;;;;5096010;28;20099;-84
2021/01/30 11:38:16;;;;;;;6.50;4.07;;;-0.40;87.80;;;;;;5094511;28;20038;-87
2021/01/30 11:40:42;;;;;;;8.88;4.70;;;-0.40;88.30;;;;;;5103064;28;20011;-91
2021/01/30 11:43:08;;;;;;;8.68;5.13;;;-0.50;88.80;;;;;;5085216;28;20016;-85
2021/01/30 11:45:34;;;;;;;9.10;5.13;;;-0.30;87.60;;;;;;5095095;28;20101;-85
2021/01/30 11:48:01;;;;;;;9.57;5.60;;;-0.40;87.50;;;;;;5098921;28;20019;-87
2021/01/30 11:50:27;;;;;;;8.02;4.53;;;-0.30;87.70;;;;;;5105591;28;20025;-85
2021/01/30 11:52:52;;;;;;;5.82;4.20;;;-0.30;88.30;;;;;;5109137;28;20042;-85
2021/01/30 11:55:19;;;;;;;9.77;5.20;;;-0.30;88.20;;;;;;5089799;28;20024;-85
2021/01/30 11:57:45;;;;;;;7.10;5.53;;;-0.40;88.20;;;;;;5089273;28;20483;-85
2021/01/30 12:00:12;;;;;;;7.97;4.72;;;-0.50;87.60;;;;;;5096671;28;20024;-88
2021/01/30 12:02:42;;;;;;;6.85;4.45;;;-0.50;87.60;;;;;;5098804;28;20311;-86
2021/01/30 12:05:13;;;;;;;9.00;4.32;;;-0.50;87.50;;;;;;5099871;28;20028;-86
2021/01/30 12:07:40;;;;;;;6.53;4.28;;;-0.50;87.60;;;;;;5102308;28;20024;-87
2021/01/30 12:10:07;;;;;;;7.95;4.57;;;-0.50;87.60;;;;;;5108509;28;20028;-91
2021/01/30 12:12:36;;;;;;;5.90;4.30;;;-0.50;88.10;;;;;;5101184;28;20473;-91
2021/01/30 12:15:04;;;;;;;6.50;4.53;;;-0.50;88.40;;;;;;5105980;28;20024;-91
2021/01/30 12:17:37;;;;;;;12.10;5.15;;;-0.50;88.80;;;;;;5105470;28;20032;-90
2021/01/30 12:20:06;;;;;;;7.30;5.05;;;-0.60;89.20;;;;;;5100443;28;20048;-85
2021/01/30 12:22:31;;;;;;;7.63;4.60;;;-0.70;90.20;;;;;;5108786;28;20045;-90
2021/01/30 12:24:57;;;;;;;7.50;5.57;;;-0.70;90.40;;;;;;5089150;28;20068;-86
2021/01/30 12:27:25;;;;;;;6.78;4.22;;;-0.80;90.60;;;;;;5095827;28;20458;-86
2021/01/30 12:29:51;;;;;;;7.95;5.65;;;-0.80;90.80;;;;;;5097471;28;20050;-86
2021/01/30 12:32:20;;;;;;;7.32;4.55;;;-0.90;91.10;;;;;;5095443;28;20032;-83
2021/01/30 12:34:46;;;;;;;6.43;4.85;;;-0.90;91.30;;;;;;5095513;28;20020;-86
2021/01/30 12:37:12;;;;;;;6.97;5.28;;;-0.90;91.40;;;;;;5107135;28;20156;-84
2021/01/30 12:39:38;;;;;;;6.10;4.78;;;-0.90;91.50;;;;;;5085728;28;20028;-87
2021/01/30 12:42:04;;;;;;;4.13;3.08;;;-0.80;91.50;;;;;;5095167;28;20322;-84
2021/01/30 12:44:30;;;;;;;6.45;5.38;;;-0.80;91.50;;;;;;5111870;28;20078;-87
2021/01/30 12:46:56;;;;;;;9.15;5.18;;;-0.90;91.70;;;;;;5106275;28;20052;-88
2021/01/30 12:49:22;;;;;;;6.90;4.57;;;-0.90;91.80;;;;;;5108350;28;20060;-88
2021/01/30 12:51:48;;;;;;;7.90;4.18;;;-0.90;91.90;;;;;;5102412;28;20017;-90
2021/01/30 12:54:19;;;;;;;8.23;4.30;;;-0.90;92.00;;;;;;5090291;28;20087;-88
2021/01/30 12:56:48;;;;;;;10.40;5.07;;;-0.90;92.30;;;;;;5112172;28;20047;-87
2021/01/30 12:59:17;;;;;;;5.60;4.50;;;-0.80;92.40;;;;;;5107310;28;20016;-89
2021/01/30 13:01:44;;;;;;;5.45;3.47;;;-0.80;92.20;;;;;;5103670;28;20020;-90
2021/01/30 13:04:11;;;;;;;6.43;4.75;;;-0.80;92.20;;;;;;5085776;28;20036;-91
2021/01/30 13:06:36;;;;;;;8.60;3.95;;;-0.90;92.00;;;;;;5093829;28;20020;-92
2021/01/30 13:09:03;;;;;;;6.90;4.40;;;-1.00;92.20;;;;;;5093775;28;20073;-88
2021/01/30 13:11:30;;;;;;;6.85;3.90;;;-1.10;92.40;;;;;;5107466;28;20419;-92